Terminal Aerodrome Forecast
Issued by NWS Duluth, MN

Home | Current Version | Previous Version | Text Only | Print | Product List | Glossary On
Versions: 1 2 3 4 5 6 7 8 9 10 11 12 13 14 15 16 17 18 19 20 21 22 23 24
062
FTUS43 KDLH 201140
TAFDLH
TAF
KDLH 201140Z 2012/2112 18007KT P6SM SCT250
      TEMPO 2015/2016 BKN018
     FM201700 26013KT P6SM SCT130
     FM210400 30004KT P6SM FEW250=

USA.gov is the U.S. government's official web portal to all federal, state and local government web resources and services.